Time;durP1;ratioP1;P1;durP2;ratioP2;P2;SDS_P1;SDS_P2;PMS_P1;PMS_P2;Temp;Humidity;BMP_temperature;BMP_pressure;BME280_temperature;BME280_humidity;BME280_pressure;Samples;Min_cycle;Max_cycle;Signal;HPM_P1;HPM_P2
2024/04/10 00:00:59;;;;;;;1.43;1.20;;;;;;;11.41;50.09;96537.22;5537087;25;20340;-86
2024/04/10 00:03:28;;;;;;;1.23;1.20;;;;;;;11.18;50.21;96525.59;5535397;25;20713;-86
2024/04/10 00:06:00;;;;;;;1.30;1.20;;;;;;;11.41;49.94;96544.44;5562798;25;20243;-86
2024/04/10 00:08:26;;;;;;;2.70;1.43;;;;;;;11.36;50.32;96547.97;5559542;25;20272;-86
2024/04/10 00:10:56;;;;;;;2.17;1.30;;;;;;;11.27;50.57;96541.75;5568475;25;20633;-85
2024/04/10 00:13:22;;;;;;;1.40;1.30;;;;;;;10.90;51.66;96526.59;5565364;25;20278;-86
2024/04/10 00:16:00;;;;;;;1.30;1.20;;;;;;;10.98;50.95;96518.72;5569113;25;20570;-86
2024/04/10 00:18:29;;;;;;;1.57;1.47;;;;;;;10.26;50.94;96487.03;5565742;25;20341;-86
2024/04/10 00:20:58;;;;;;;1.30;1.20;;;;;;;10.71;51.49;96539.91;5568175;25;20230;-85
2024/04/10 00:23:26;;;;;;;2.40;1.40;;;;;;;10.83;50.40;96516.28;5565831;25;20235;-85
2024/04/10 00:25:56;;;;;;;2.37;1.20;;;;;;;10.83;50.86;96520.84;5568030;25;20273;-86
2024/04/10 00:28:22;;;;;;;1.70;1.60;;;;;;;11.19;50.81;96545.03;5565778;25;20257;-86
2024/04/10 00:30:51;;;;;;;1.67;1.57;;;;;;;10.88;51.55;96524.22;5566491;25;20266;-86
2024/04/10 00:33:18;;;;;;;1.50;1.40;;;;;;;10.77;52.04;96526.25;5550703;25;20226;-86
2024/04/10 00:35:59;;;;;;;1.40;1.30;;;;;;;11.05;51.41;96531.69;5555774;25;20312;-86
2024/04/10 00:38:26;;;;;;;1.30;1.30;;;;;;;10.88;51.71;96545.53;5528315;25;20348;-86
2024/04/10 00:40:56;;;;;;;1.90;1.70;;;;;;;10.62;52.33;96504.38;5548396;25;20285;-86
2024/04/10 00:43:22;;;;;;;3.27;2.07;;;;;;;10.74;51.71;96486.88;5553339;25;20226;-85
2024/04/10 00:45:57;;;;;;;1.70;1.60;;;;;;;10.95;51.15;96526.50;5559361;25;20234;-85
2024/04/10 00:48:23;;;;;;;2.20;2.00;;;;;;;10.60;51.78;96498.53;5560261;25;20234;-85
2024/04/10 00:50:52;;;;;;;1.80;1.70;;;;;;;10.23;52.72;96489.44;5546384;25;20258;-85
2024/04/10 00:53:21;;;;;;;1.67;1.57;;;;;;;10.64;51.83;96512.84;5526807;25;20238;-86
2024/04/10 00:55:50;;;;;;;1.67;1.57;;;;;;;10.73;53.07;96529.78;5529867;25;20282;-85
2024/04/10 00:58:16;;;;;;;1.70;1.60;;;;;;;10.67;53.56;96506.94;5528517;25;20575;-85
2024/04/10 01:00:45;;;;;;;2.13;2.03;;;;;;;10.35;53.67;96484.50;5529810;25;20231;-86
2024/04/10 01:03:11;;;;;;;1.90;1.80;;;;;;;10.33;54.39;96499.94;5551916;25;20279;-85
2024/04/10 01:05:39;;;;;;;3.10;1.77;;;;;;;9.95;54.18;96459.19;5530599;25;20227;-86
2024/04/10 01:08:06;;;;;;;5.13;1.67;;;;;;;10.57;53.62;96507.09;5527517;25;20248;-86
2024/04/10 01:10:38;;;;;;;1.97;1.70;;;;;;;10.28;52.48;96457.47;5530252;25;20239;-86
2024/04/10 01:13:06;;;;;;;2.40;1.90;;;;;;;10.63;52.54;96505.94;5534364;25;20356;-86
2024/04/10 01:15:34;;;;;;;1.60;1.50;;;;;;;10.65;52.46;96514.44;5529982;25;20732;-86
2024/04/10 01:18:00;;;;;;;1.87;1.73;;;;;;;10.31;53.01;96477.38;5527885;25;20224;-86
2024/04/10 01:20:29;;;;;;;1.73;1.63;;;;;;;10.02;53.31;96446.31;5531393;25;20235;-86
2024/04/10 01:23:00;;;;;;;1.73;1.63;;;;;;;10.04;53.61;96482.19;5551631;25;20672;-86
2024/04/10 01:25:28;;;;;;;2.93;2.30;;;;;;;9.98;54.59;96514.44;5535628;25;20234;-85
2024/04/10 01:27:54;;;;;;;1.93;1.83;;;;;;;9.78;55.24;96496.88;5564915;25;20367;-86
2024/04/10 01:30:23;;;;;;;2.13;1.57;;;;;;;9.91;54.86;96511.34;5540755;25;20224;-85
2024/04/10 01:32:49;;;;;;;2.43;1.93;;;;;;;10.03;54.15;96477.19;5527080;25;20231;-86
2024/04/10 01:35:18;;;;;;;2.77;1.73;;;;;;;10.06;54.40;96495.19;5554084;25;20219;-86
2024/04/10 01:37:44;;;;;;;1.77;1.67;;;;;;;9.93;54.82;96483.41;5547856;25;20238;-85
2024/04/10 01:40:15;;;;;;;2.20;2.00;;;;;;;9.89;55.44;96497.53;5532121;25;20317;-85
2024/04/10 01:42:43;;;;;;;1.73;1.60;;;;;;;9.77;55.25;96469.50;5527917;25;20225;-86
2024/04/10 01:45:13;;;;;;;2.83;1.80;;;;;;;10.02;54.91;96492.31;5530772;25;20600;-85
2024/04/10 01:47:38;;;;;;;1.60;1.50;;;;;;;9.80;54.40;96460.16;5539853;25;20346;-85
2024/04/10 01:50:08;;;;;;;2.63;1.80;;;;;;;10.05;54.54;96483.00;5529882;25;20228;-85
2024/04/10 01:52:34;;;;;;;1.60;1.50;;;;;;;9.70;54.84;96468.25;5529007;25;20339;-85
2024/04/10 01:55:03;;;;;;;1.90;1.80;;;;;;;9.46;55.86;96463.72;5556974;25;20327;-85
2024/04/10 01:57:31;;;;;;;2.10;1.73;;;;;;;9.62;55.64;96468.88;5526870;25;20235;-85
2024/04/10 02:00:00;;;;;;;2.13;2.00;;;;;;;10.01;54.74;96487.28;5537133;25;20333;-85
2024/04/10 02:02:26;;;;;;;1.90;1.80;;;;;;;9.92;55.09;96465.88;5534961;25;20706;-86
2024/04/10 02:04:54;;;;;;;2.13;2.00;;;;;;;9.80;55.39;96454.84;5559941;25;20286;-86
2024/04/10 02:07:20;;;;;;;1.90;1.80;;;;;;;9.94;54.88;96468.22;5536926;25;20293;-85
2024/04/10 02:09:48;;;;;;;1.97;1.87;;;;;;;9.66;55.20;96445.97;5551966;25;20333;-86
2024/04/10 02:12:14;;;;;;;3.73;2.00;;;;;;;9.87;55.43;96476.53;5549539;25;20277;-85
2024/04/10 02:14:45;;;;;;;1.50;1.40;;;;;;;9.89;54.91;96481.59;5556301;25;20231;-86
2024/04/10 02:17:11;;;;;;;2.10;1.90;;;;;;;9.68;55.31;96433.19;5526632;25;20225;-85
2024/04/10 02:19:40;;;;;;;2.57;1.97;;;;;;;9.95;54.70;96481.25;5529556;25;20228;-85
2024/04/10 02:22:06;;;;;;;2.63;2.17;;;;;;;10.00;54.98;96481.19;5526612;25;20242;-85
2024/04/10 02:24:34;;;;;;;2.20;1.97;;;;;;;9.97;55.79;96480.97;5529244;25;20274;-85
2024/04/10 02:27:00;;;;;;;2.33;2.13;;;;;;;9.60;56.26;96449.75;5553914;25;20261;-85
2024/04/10 02:29:29;;;;;;;2.60;1.63;;;;;;;9.69;56.14;96462.16;5551018;25;20567;-85
2024/04/10 02:31:58;;;;;;;2.17;2.00;;;;;;;9.66;55.69;96467.22;5562722;25;20340;-85
2024/04/10 02:34:26;;;;;;;4.47;2.13;;;;;;;9.66;56.37;96483.97;5566597;25;20274;-85
2024/04/10 02:36:52;;;;;;;1.87;1.77;;;;;;;9.32;55.88;96414.97;5562951;25;20235;-85
2024/04/10 02:39:20;;;;;;;3.17;1.97;;;;;;;9.71;56.28;96473.28;5539747;25;20612;-85
2024/04/10 02:41:46;;;;;;;2.87;1.80;;;;;;;9.47;56.54;96445.91;5525129;25;20272;-84
2024/04/10 02:44:15;;;;;;;2.37;1.93;;;;;;;9.27;56.91;96460.97;5528795;25;20586;-85
2024/04/10 02:46:40;;;;;;;2.30;2.10;;;;;;;8.98;57.59;96442.41;5538623;25;20652;-85
2024/04/10 02:49:12;;;;;;;2.03;1.87;;;;;;;8.96;57.46;96433.13;5563744;25;20229;-85
2024/04/10 02:51:37;;;;;;;1.80;1.70;;;;;;;9.42;57.05;96477.84;5526154;25;20670;-85
2024/04/10 02:54:06;;;;;;;2.30;2.10;;;;;;;9.44;57.29;96481.00;5559340;25;20227;-84
2024/04/10 02:56:32;;;;;;;2.07;1.97;;;;;;;9.46;56.89;96473.56;5547484;25;20757;-85
2024/04/10 02:59:00;;;;;;;2.03;1.93;;;;;;;9.27;57.12;96479.56;5529185;25;20228;-84
2024/04/10 03:01:26;;;;;;;3.03;2.13;;;;;;;9.26;57.63;96470.03;5553675;25;20242;-84
2024/04/10 03:03:55;;;;;;;2.50;2.30;;;;;;;9.22;57.90;96478.84;5553171;25;20563;-92
2024/04/10 03:06:23;;;;;;;2.93;2.73;;;;;;;9.41;57.68;96484.22;5564288;25;20273;-91
2024/04/10 03:08:52;;;;;;;2.17;2.00;;;;;;;9.02;58.09;96483.25;5567156;25;20265;-92
2024/04/10 03:11:18;;;;;;;1.70;1.60;;;;;;;9.00;58.62;96508.47;5564918;25;20261;-92
2024/04/10 03:13:46;;;;;;;2.00;1.90;;;;;;;8.76;58.91;96506.53;5566122;25;20677;-91
2024/04/10 03:16:12;;;;;;;2.10;2.00;;;;;;;8.66;59.44;96489.88;5526085;25;20239;-91
2024/04/10 03:18:41;;;;;;;2.53;2.33;;;;;;;9.01;58.93;96520.69;5557440;25;20230;-90
2024/04/10 03:21:07;;;;;;;4.67;4.20;;;;;;;8.87;58.83;96504.59;5564190;25;20230;-91
2024/04/10 03:23:38;;;;;;;4.73;2.63;;;;;;;8.72;59.51;96517.97;5566828;25;20266;-92
2024/04/10 03:26:08;;;;;;;2.00;1.90;;;;;;;8.74;59.74;96524.56;5531392;25;20235;-91
2024/04/10 03:28:36;;;;;;;2.33;1.73;;;;;;;8.69;59.63;96515.88;5553385;25;20242;-91
2024/04/10 03:31:06;;;;;;;3.03;2.03;;;;;;;8.83;59.74;96522.16;5537323;25;20231;-91
2024/04/10 03:33:35;;;;;;;2.70;2.50;;;;;;;8.97;58.99;96519.66;5567442;25;20211;-91
2024/04/10 03:36:01;;;;;;;3.00;1.83;;;;;;;8.87;58.78;96520.53;5553460;25;20227;-91
2024/04/10 03:38:30;;;;;;;3.23;1.80;;;;;;;9.10;58.51;96527.00;5563037;25;20243;-91
2024/04/10 03:41:01;;;;;;;2.27;2.07;;;;;;;9.16;59.00;96538.34;5548316;25;20552;-91
2024/04/10 03:43:29;;;;;;;1.87;1.77;;;;;;;9.35;57.70;96525.97;5564241;25;20236;-92
2024/04/10 03:46:00;;;;;;;3.20;2.30;;;;;;;9.31;58.01;96528.41;5527387;25;20227;-91
2024/04/10 03:48:28;;;;;;;3.67;1.83;;;;;;;9.32;57.43;96527.31;5538995;25;20267;-91
2024/04/10 03:51:01;;;;;;;1.63;1.53;;;;;;;9.14;58.08;96488.19;5563069;25;20269;-90
2024/04/10 03:53:30;;;;;;;3.20;1.87;;;;;;;9.32;58.00;96545.13;5563581;25;20270;-91
2024/04/10 03:55:59;;;;;;;3.60;2.10;;;;;;;9.38;57.46;96543.22;5563258;25;20226;-91
2024/04/10 03:58:27;;;;;;;2.60;2.40;;;;;;;9.51;56.87;96542.56;5566715;25;20222;-91
2024/04/10 04:00:53;;;;;;;3.73;2.13;;;;;;;9.54;57.03;96547.34;5534502;25;20561;-91
2024/04/10 04:03:22;;;;;;;1.67;1.57;;;;;;;9.47;56.97;96526.41;5563359;25;20269;-91
2024/04/10 04:05:48;;;;;;;1.80;1.70;;;;;;;9.61;56.73;96539.84;5563463;25;20261;-91
2024/04/10 04:08:17;;;;;;;2.07;1.80;;;;;;;9.20;57.58;96483.63;5534579;25;20228;-91
2024/04/10 04:10:43;;;;;;;2.93;1.67;;;;;;;9.60;57.13;96537.44;5529806;25;20231;-91
2024/04/10 04:13:14;;;;;;;1.83;1.73;;;;;;;9.66;56.89;96563.69;5566197;25;20705;-89
2024/04/10 04:15:40;;;;;;;2.20;2.00;;;;;;;9.41;57.75;96545.31;5560356;25;20364;-84
2024/04/10 04:18:09;;;;;;;1.77;1.67;;;;;;;9.54;57.56;96553.44;5527970;25;20243;-88
2024/04/10 04:20:35;;;;;;;1.83;1.70;;;;;;;9.48;57.31;96524.53;5554291;25;20243;-87
2024/04/10 04:23:04;;;;;;;2.47;1.97;;;;;;;9.41;57.50;96530.19;5546104;25;20332;-88
2024/04/10 04:25:30;;;;;;;6.13;2.40;;;;;;;9.78;58.34;96558.00;5555737;25;20227;-88
2024/04/10 04:27:59;;;;;;;39.13;18.73;;;;;;;9.78;57.79;96564.09;5568977;25;20218;-87
2024/04/10 04:30:28;;;;;;;18.57;10.47;;;;;;;9.77;57.92;96561.72;5527277;25;20232;-87
2024/04/10 04:32:56;;;;;;;9.27;7.23;;;;;;;9.89;58.13;96553.38;5552572;25;20812;-88
2024/04/10 04:35:22;;;;;;;2.93;2.73;;;;;;;9.67;57.57;96532.59;5534637;25;20232;-87
2024/04/10 04:37:58;;;;;;;4.17;3.23;;;;;;;9.79;57.36;96556.91;5559441;25;20223;-87
2024/04/10 04:40:30;;;;;;;5.17;4.60;;;;;;;9.78;57.78;96558.78;5528418;25;20240;-87
2024/04/10 04:42:59;;;;;;;6.73;5.33;;;;;;;9.43;58.56;96543.97;5556234;25;20286;-87
2024/04/10 04:45:28;;;;;;;7.03;5.67;;;;;;;9.57;58.49;96552.09;5565373;25;20226;-87
2024/04/10 04:47:56;;;;;;;18.30;11.90;;;;;;;9.67;58.26;96559.16;5530990;25;20258;-87
2024/04/10 04:50:22;;;;;;;16.37;7.53;;;;;;;9.50;58.41;96544.44;5540698;25;20276;-87
2024/04/10 04:52:50;;;;;;;7.47;4.77;;;;;;;9.63;58.66;96558.13;5566991;25;20227;-87
2024/04/10 04:55:16;;;;;;;5.33;4.47;;;;;;;8.99;60.32;96549.38;5541895;25;20231;-85
2024/04/10 04:57:45;;;;;;;4.37;3.80;;;;;;;9.28;60.26;96560.81;5531450;25;20255;-84
2024/04/10 05:00:14;;;;;;;3.50;3.20;;;;;;;9.14;60.14;96532.53;5525477;25;20296;-84
2024/04/10 05:02:45;;;;;;;4.33;2.83;;;;;;;9.43;59.58;96580.38;5534211;25;20250;-84
2024/04/10 05:05:12;;;;;;;4.60;2.60;;;;;;;9.30;59.39;96550.72;5543821;25;20350;-84
2024/04/10 05:07:40;;;;;;;1.70;1.60;;;;;;;8.98;59.61;96508.78;5561792;25;20246;-85
2024/04/10 05:10:09;;;;;;;1.80;1.70;;;;;;;9.27;59.53;96555.81;5564678;25;20357;-84
2024/04/10 05:12:37;;;;;;;3.07;2.80;;;;;;;9.38;60.16;96567.94;5564216;25;20242;-84
2024/04/10 05:15:06;;;;;;;3.27;2.97;;;;;;;9.31;61.03;96570.09;5545132;25;20228;-84
2024/04/10 05:17:34;;;;;;;5.40;2.23;;;;;;;9.41;62.14;96583.31;5551179;25;20275;-84
2024/04/10 05:20:04;;;;;;;2.87;2.30;;;;;;;9.63;61.75;96579.41;5548193;25;20698;-84
2024/04/10 05:22:33;;;;;;;2.10;2.00;;;;;;;9.57;62.21;96538.03;5530635;25;20240;-84
2024/04/10 05:24:59;;;;;;;4.57;2.50;;;;;;;10.03;62.12;96584.34;5526783;25;20710;-84
2024/04/10 05:27:30;;;;;;;3.37;2.20;;;;;;;10.26;61.17;96566.81;5565953;25;20271;-84
2024/04/10 05:29:56;;;;;;;3.00;2.80;;;;;;;10.43;61.63;96582.31;5539095;25;20292;-84
2024/04/10 05:32:25;;;;;;;3.27;2.13;;;;;;;10.55;60.88;96589.88;5554148;25;20278;-83
2024/04/10 05:34:52;;;;;;;3.53;2.50;;;;;;;10.59;60.31;96580.25;5552901;25;20230;-83
2024/04/10 05:37:24;;;;;;;6.30;2.60;;;;;;;10.65;59.23;96573.78;5552887;25;20582;-84
2024/04/10 05:40:01;;;;;;;2.40;2.20;;;;;;;10.77;58.78;96570.72;5553670;25;20231;-83
2024/04/10 05:42:29;;;;;;;4.67;3.00;;;;;;;10.90;57.98;96577.97;5548353;25;20278;-84
2024/04/10 05:44:55;;;;;;;4.60;2.47;;;;;;;11.04;57.39;96579.94;5558472;25;20290;-84
2024/04/10 05:47:24;;;;;;;2.90;1.97;;;;;;;11.13;56.29;96567.53;5547386;25;20317;-84
2024/04/10 05:49:49;;;;;;;2.33;1.90;;;;;;;11.39;55.07;96566.06;5551805;25;20347;-84
2024/04/10 05:52:18;;;;;;;2.03;1.73;;;;;;;11.33;55.06;96518.47;5529417;25;20243;-83
2024/04/10 05:54:51;;;;;;;6.60;2.50;;;;;;;11.78;54.35;96564.06;5526881;25;20609;-83
2024/04/10 05:57:20;;;;;;;2.73;2.50;;;;;;;11.75;53.93;96536.91;5552125;25;20238;-83
2024/04/10 05:59:46;;;;;;;3.53;2.20;;;;;;;12.31;52.79;96583.09;5553040;25;20269;-83
2024/04/10 06:02:14;;;;;;;4.03;1.93;;;;;;;12.23;52.16;96543.75;5529416;25;20228;-83
2024/04/10 06:04:40;;;;;;;6.30;2.00;;;;;;;12.41;51.02;96571.44;5537684;25;20259;-83
2024/04/10 06:07:09;;;;;;;5.43;2.13;;;;;;;12.61;50.63;96576.38;5542596;25;20582;-83
2024/04/10 06:09:34;;;;;;;3.50;1.90;;;;;;;12.73;50.44;96578.53;5551790;25;20298;-83
2024/04/10 06:12:06;;;;;;;6.30;2.53;;;;;;;12.86;51.60;96603.66;5553030;25;20226;-83
2024/04/10 06:14:32;;;;;;;7.13;2.43;;;;;;;13.00;51.59;96583.00;5563979;25;20775;-83
2024/04/10 06:17:00;;;;;;;8.13;3.03;;;;;;;13.20;51.38;96573.75;5565940;25;20294;-83
2024/04/10 06:19:26;;;;;;;4.53;2.67;;;;;;;13.63;50.80;96592.03;5539143;25;20230;-83
2024/04/10 06:21:54;;;;;;;4.67;1.87;;;;;;;13.56;49.75;96565.69;5541332;25;20224;-83
2024/04/10 06:24:21;;;;;;;3.93;1.73;;;;;;;14.07;48.32;96607.22;5549898;25;20316;-82
2024/04/10 06:26:49;;;;;;;3.10;1.87;;;;;;;14.35;47.88;96593.63;5530125;25;20247;-82
2024/04/10 06:29:18;;;;;;;2.40;1.50;;;;;;;14.71;47.51;96600.69;5562817;25;20835;-83
2024/04/10 06:31:47;;;;;;;4.80;1.80;;;;;;;14.64;45.51;96574.38;5540733;25;20267;-82
2024/04/10 06:34:12;;;;;;;4.33;2.17;;;;;;;14.76;45.40;96563.03;5564041;25;20570;-82
2024/04/10 06:36:41;;;;;;;7.70;2.00;;;;;;;14.96;45.54;96572.38;5540265;25;20271;-82
2024/04/10 06:39:10;;;;;;;3.07;1.97;;;;;;;15.58;42.87;96602.31;5563308;25;20730;-82
2024/04/10 06:41:38;;;;;;;5.63;2.43;;;;;;;15.62;42.76;96602.47;5565853;25;20727;-85
2024/04/10 06:44:04;;;;;;;2.97;2.10;;;;;;;15.87;41.48;96601.69;5546161;25;20264;-85
2024/04/10 06:46:38;;;;;;;2.20;2.00;;;;;;;16.02;40.38;96605.72;5533188;25;20235;-85
2024/04/10 06:49:04;;;;;;;6.73;2.17;;;;;;;15.95;41.63;96602.75;5543603;25;20242;-85
2024/04/10 06:51:33;;;;;;;4.40;1.80;;;;;;;16.06;40.71;96579.81;5534070;25;20746;-85
2024/04/10 06:53:59;;;;;;;2.50;1.83;;;;;;;16.47;39.63;96583.75;5561378;25;20234;-85
2024/04/10 06:56:27;;;;;;;2.33;1.73;;;;;;;16.94;38.60;96607.09;5564821;25;20335;-84
2024/04/10 06:58:58;;;;;;;5.43;1.80;;;;;;;16.81;39.16;96593.56;5542823;25;20306;-84
2024/04/10 07:01:24;;;;;;;5.87;1.90;;;;;;;16.83;37.62;96559.06;5525711;25;20273;-84
2024/04/10 07:03:55;;;;;;;4.17;2.00;;;;;;;17.34;37.00;96585.91;5552133;25;20268;-85
2024/04/10 07:06:21;;;;;;;5.33;1.90;;;;;;;17.43;35.98;96564.31;5562725;25;20313;-84
2024/04/10 07:08:51;;;;;;;4.40;1.67;;;;;;;17.82;35.58;96604.19;5540573;25;20254;-85
2024/04/10 07:12:55;;;;;;;2.70;1.60;;;;;;;17.95;35.64;-53548.38;5544336;25;20578;-84
2024/04/10 07:15:21;;;;;;;1.93;1.47;;;;;;;18.03;34.91;-53527.81;5544170;25;20621;-84
2024/04/10 07:17:51;;;;;;;4.73;2.43;;;;;;;18.48;35.23;-53460.13;5547199;25;20265;-84
2024/04/10 07:20:17;;;;;;;5.23;1.90;;;;;;;18.21;34.95;-53489.75;5544231;25;20235;-84
2024/04/10 07:22:46;;;;;;;5.23;1.90;;;;;;;18.55;33.90;-53435.97;5547394;25;20331;-84
2024/04/10 07:25:12;;;;;;;4.07;1.90;;;;;;;18.80;32.59;-53406.69;5544120;25;20227;-84
2024/04/10 07:27:40;;;;;;;2.47;1.87;;;;;;;19.02;33.73;-53368.63;5547756;25;20227;-84
2024/04/10 07:30:10;;;;;;;2.60;1.80;;;;;;;18.76;33.87;-53415.16;5543987;25;20273;-83
2024/04/10 07:32:38;;;;;;;3.33;2.33;;;;;;;18.83;32.78;-53394.03;5547000;25;20235;-84
2024/04/10 07:35:05;;;;;;;3.57;2.07;;;;;;;19.19;32.22;-53338.63;5544481;25;20303;-84
2024/04/10 07:37:33;;;;;;;1.87;1.70;;;;;;;19.13;31.96;-53343.97;5547116;25;20631;-84
2024/04/10 07:39:59;;;;;;;4.53;1.67;;;;;;;19.66;31.14;-53264.06;5544352;25;20231;-84
2024/04/10 07:42:28;;;;;;;5.83;1.63;;;;;;;19.44;30.80;-53299.03;5546390;25;20281;-84
2024/04/10 07:44:53;;;;;;;2.33;1.63;;;;;;;19.21;30.58;-53331.34;5543307;25;20706;-83
2024/04/10 07:47:25;;;;;;;1.23;1.20;;;;;;;19.39;30.34;-53309.44;5546524;25;20628;-84
2024/04/10 07:49:51;;;;;;;1.73;1.47;;;;;;;19.89;29.74;-53221.41;5543710;25;20363;-85
2024/04/10 07:52:19;;;;;;;27.03;14.47;;;;;;;20.00;29.57;-53202.78;5546444;25;20286;-84
2024/04/10 07:54:45;;;;;;;5.17;2.20;;;;;;;19.93;28.60;-53206.44;5543404;25;20286;-84
2024/04/10 07:57:15;;;;;;;3.63;2.23;;;;;;;20.16;28.99;-53174.25;5546708;25;20279;-84
2024/04/10 07:59:41;;;;;;;2.67;2.40;;;;;;;19.91;28.16;-53210.72;5519522;25;20631;-84
2024/04/10 08:02:09;;;;;;;1.50;1.40;;;;;;;20.13;29.01;-53179.88;5546254;25;20227;-84
2024/04/10 08:04:38;;;;;;;5.73;3.37;;;;;;;20.02;29.07;-53195.06;5543326;25;20235;-84
2024/04/10 08:07:08;;;;;;;2.80;2.50;;;;;;;20.19;28.28;-53130.00;5546792;25;20243;-84
2024/04/10 08:09:34;;;;;;;3.27;2.53;;;;;;;20.14;27.84;-53161.13;5543747;25;20842;-84
2024/04/10 08:12:02;;;;;;;2.17;1.90;;;;;;;20.41;28.57;-53130.81;5545883;25;20243;-84
2024/04/10 08:14:28;;;;;;;2.90;2.63;;;;;;;21.10;27.42;-53003.28;5543566;25;20327;-84
2024/04/10 08:16:56;;;;;;;5.00;3.60;;;;;;;21.19;27.28;-52994.94;5545991;25;20319;-83
2024/04/10 08:19:23;;;;;;;5.90;1.60;;;;;;;20.77;27.16;-53062.47;5543568;25;20231;-84
2024/04/10 08:21:54;;;;;;;2.70;2.50;;;;;;;21.16;27.77;-52996.53;5544370;25;20273;-83
2024/04/10 08:24:20;;;;;;;5.43;2.50;;;;;;;21.34;27.13;-52976.75;5526810;25;20240;-84
2024/04/10 08:26:48;;;;;;;4.87;4.30;;;;;;;20.63;28.30;-53071.38;5529693;25;20284;-84
2024/04/10 08:29:14;;;;;;;2.43;1.93;;;;;;;21.20;28.85;-52988.16;5527528;25;20224;-84
2024/04/10 08:31:43;;;;;;;3.30;3.10;;;;;;;21.51;28.01;-52942.63;5529142;25;20275;-84
2024/04/10 08:34:10;;;;;;;2.37;1.63;;;;;;;21.46;27.15;-52946.56;5527060;25;20360;-84
2024/04/10 08:36:39;;;;;;;2.97;2.70;;;;;;;21.89;26.60;-52876.31;5529507;25;20236;-84
2024/04/10 08:39:08;;;;;;;14.50;2.70;;;;;;;21.51;27.21;-52933.75;5527030;25;20231;-84
2024/04/10 08:41:41;;;;;;;1.83;1.73;;;;;;;21.82;27.88;-52883.88;5529862;25;20274;-84
2024/04/10 08:44:07;;;;;;;3.03;2.37;;;;;;;22.01;26.86;-52842.59;5527831;25;20434;-84
2024/04/10 08:46:39;;;;;;;5.43;1.80;;;;;;;21.62;26.27;-52906.78;5529414;25;20240;-84
2024/04/10 08:49:09;;;;;;;8.67;2.03;;;;;;;21.74;26.78;-52894.84;5527390;25;20228;-84
2024/04/10 08:51:39;;;;;;;2.90;1.53;;;;;;;21.36;26.81;-52949.81;5526992;25;20346;-84
2024/04/10 08:54:12;;;;;;;5.37;1.70;;;;;;;21.53;26.29;-52920.13;5530371;25;20235;-84
2024/04/10 08:56:38;;;;;;;1.60;1.50;;;;;;;21.72;26.12;-52896.16;5479155;25;20232;-84
2024/04/10 08:59:06;;;;;;;2.20;2.00;;;;;;;22.45;26.25;-52769.31;5529512;25;20555;-84
2024/04/10 09:01:33;;;;;;;2.30;2.07;;;;;;;22.37;25.38;-52779.19;5526460;25;20225;-84
2024/04/10 09:04:08;;;;;;;1.67;1.57;;;;;;;22.83;25.44;-52712.13;5529113;25;20722;-83
2024/04/10 09:06:34;;;;;;;3.90;1.70;;;;;;;22.21;25.02;-52800.03;5527284;25;20282;-84
2024/04/10 09:09:06;;;;;;;1.83;1.57;;;;;;;22.42;26.27;-52768.50;5529363;25;20263;-84
2024/04/10 09:11:37;;;;;;;1.90;1.80;;;;;;;22.52;25.14;-52734.06;5527364;25;20290;-84
2024/04/10 09:14:06;;;;;;;1.80;1.70;;;;;;;21.91;26.59;-52857.84;5529349;25;20278;-84
2024/04/10 09:16:33;;;;;;;2.60;1.80;;;;;;;22.34;26.67;-52792.16;5526286;25;20228;-83
2024/04/10 09:19:12;;;;;;;8.63;2.00;;;;;;;22.68;24.68;-52726.16;5528496;25;20223;-84
2024/04/10 09:21:38;;;;;;;3.23;1.90;;;;;;;21.88;26.02;-52847.09;5527204;25;20326;-84
2024/04/10 09:24:10;;;;;;;4.10;1.70;;;;;;;22.76;25.53;-52718.19;5529070;25;20266;-84
2024/04/10 09:26:41;;;;;;;2.37;1.73;;;;;;;23.10;24.43;-52661.13;5526339;25;20239;-84
2024/04/10 09:29:12;;;;;;;2.77;1.70;;;;;;;22.86;24.36;-52700.22;5529234;25;20549;-84
2024/04/10 09:31:39;;;;;;;1.70;1.60;;;;;;;23.49;24.23;-52595.47;5526662;25;20232;-84
2024/04/10 09:34:08;;;;;;;2.07;1.70;;;;;;;23.01;24.48;-52660.03;5528709;25;20236;-84
2024/04/10 09:36:55;;;;;;;3.10;1.50;;;;;;;22.86;24.87;-52697.69;5526473;25;20761;-84
2024/04/10 09:39:25;;;;;;;2.07;1.90;;;;;;;23.18;24.89;-52644.94;5528624;25;20240;-84
2024/04/10 09:41:58;;;;;;;2.77;2.00;;;;;;;23.48;24.13;-52595.28;5526053;25;20224;-84
2024/04/10 09:44:32;;;;;;;2.33;2.13;;;;;;;22.81;24.59;-52699.06;5529238;25;20776;-84
2024/04/10 09:46:59;;;;;;;3.63;2.10;;;;;;;-144.56;100.00;-69048.50;5526579;25;20337;-84
2024/04/10 09:49:30;;;;;;;2.27;1.40;;;;;;;189.65;23.45;17763.09;5528177;25;20714;-84
2024/04/10 09:51:58;;;;;;;1.90;1.50;;;;;;;23.38;24.34;-52604.50;5526748;25;20278;-85
2024/04/10 09:54:27;;;;;;;3.23;1.70;;;;;;;23.44;24.47;48344.66;5528436;25;20756;-84
2024/04/10 09:56:57;;;;;;;5.17;1.47;;;;;;;23.44;24.70;-52482.06;5526453;25;20257;-84
2024/04/10 09:59:26;;;;;;;1.63;1.50;;;;;;;24.24;24.34;-52460.09;5528367;25;20682;-84
2024/04/10 10:01:54;;;;;;;1.87;1.33;;;;;;;23.85;23.66;-52496.00;5526686;25;20364;-84
2024/04/10 10:04:23;;;;;;;2.87;2.07;;;;;;;24.41;23.80;-52431.22;5527994;25;20224;-84
2024/04/10 10:06:48;;;;;;;1.57;1.47;;;;;;;23.82;24.78;-52527.66;5526218;25;20295;-84
2024/04/10 10:09:25;;;;;;;4.57;1.90;;;;;;;23.80;25.04;-52516.09;5527849;25;20304;-84
2024/04/10 10:12:01;;;;;;;1.50;1.40;;;;;;;24.21;23.82;-52460.13;5525967;25;20273;-84
2024/04/10 10:14:30;;;;;;;2.23;1.53;;;;;;;23.81;23.70;-52528.97;5528289;25;20223;-84
2024/04/10 10:17:06;;;;;;;1.80;1.70;;;;;;;23.75;24.19;-52535.56;5525493;25;20736;-83
2024/04/10 10:19:38;;;;;;;3.67;1.80;;;;;;;23.42;24.63;-52592.63;5485371;25;21350;-85
2024/04/10 10:22:05;;;;;;;3.93;1.70;;;;;;;23.94;24.32;-52501.56;5525035;25;20235;-84
2024/04/10 10:24:34;;;;;;;2.23;1.47;;;;;;;23.96;23.66;-52503.25;5528617;25;20347;-84
2024/04/10 10:27:03;;;;;;;2.10;1.60;;;;;;;24.26;23.73;-52433.72;5525486;25;20315;-84
2024/04/10 10:29:32;;;;;;;1.80;1.70;;;;;;;23.88;23.58;-52493.41;5528371;25;20244;-84
2024/04/10 10:32:01;;;;;;;3.57;1.53;;;;;;;23.70;23.71;-52545.78;5525417;25;20326;-84
2024/04/10 10:34:30;;;;;;;1.80;1.67;;;;;;;24.11;24.45;-52478.59;5528357;25;20312;-83
2024/04/10 10:37:01;;;;;;;2.70;1.70;;;;;;;24.16;25.26;-52472.41;5525383;25;20228;-84
2024/04/10 10:39:30;;;;;;;3.60;1.70;;;;;;;24.19;24.95;-52473.66;5528286;25;20338;-84
2024/04/10 10:42:03;;;;;;;2.40;1.47;;;;;;;23.78;24.12;-52525.63;5525122;25;20311;-85
2024/04/10 10:44:31;;;;;;;3.60;1.47;;;;;;;23.67;24.88;-52549.41;5527618;25;20251;-84
2024/04/10 10:46:58;;;;;;;1.90;1.23;;;;;;;23.79;25.69;-52521.81;5524538;25;20291;-84
2024/04/10 10:49:28;;;;;;;2.07;1.83;;;;;;;23.93;23.86;-52506.84;5527139;25;20640;-84
2024/04/10 10:51:55;;;;;;;2.13;1.27;;;;;;;24.31;23.90;-52444.22;5511987;25;20579;-84
2024/04/10 10:54:24;;;;;;;1.63;1.53;;;;;;;23.95;23.73;-52494.81;5517160;25;20406;-84
2024/04/10 10:56:50;;;;;;;3.40;1.73;;;;;;;23.76;24.27;-52530.28;5525934;25;20236;-84
2024/04/10 10:59:21;;;;;;;1.57;1.47;;;;;;;23.89;24.39;-52505.88;5527740;25;20327;-84
2024/04/10 11:01:49;;;;;;;1.73;1.63;;;;;;;24.79;24.99;54359.72;5525216;25;20714;-84
2024/04/10 11:04:18;;;;;;;1.80;1.70;;;;;;;24.31;23.87;-52433.88;5526739;25;20274;-84
2024/04/10 11:06:45;;;;;;;1.83;1.70;;;;;;;24.25;25.19;-52447.84;5525314;25;20228;-84
2024/04/10 11:09:15;;;;;;;1.70;1.40;;;;;;;24.25;24.99;-52449.34;5527541;25;20233;-84
2024/04/10 11:11:42;;;;;;;7.03;1.87;;;;;;;24.38;25.44;-52424.97;5524604;25;20235;-84
2024/04/10 11:14:14;;;;;;;2.87;1.50;;;;;;;24.05;24.23;-52482.25;5527527;25;20240;-84
2024/04/10 11:16:42;;;;;;;4.93;2.03;;;;;;;23.71;24.28;-52540.06;5525338;25;20336;-84
2024/04/10 11:19:11;;;;;;;3.53;1.57;;;;;;;23.80;24.50;-52518.00;5526965;25;20323;-85
2024/04/10 11:21:37;;;;;;;1.67;1.50;;;;;;;23.87;24.47;-52503.13;5524962;25;20622;-84
2024/04/10 11:24:05;;;;;;;3.07;1.80;;;;;;;24.40;24.17;-52424.69;5526637;25;20247;-84
2024/04/10 11:26:31;;;;;;;2.00;1.50;;;;;;;24.31;24.67;-52413.22;5525028;25;20224;-84
2024/04/10 11:29:00;;;;;;;1.80;1.70;;;;;;;23.82;25.30;-52514.81;5503191;26;20802;-84
2024/04/10 11:31:25;;;;;;;2.70;1.60;;;;;;;23.73;25.15;-52529.47;5524407;25;20278;-84
2024/04/10 11:33:57;;;;;;;3.13;1.80;;;;;;;23.94;25.81;-52488.69;5527139;25;20236;-83
2024/04/10 11:36:23;;;;;;;3.07;1.63;;;;;;;24.01;25.02;-52479.34;5524052;25;20330;-84
2024/04/10 11:38:51;;;;;;;2.10;1.90;;;;;;;24.82;24.50;54350.19;5526402;25;20236;-84